sensor_id;sensor_type;location;lat;lon;timestamp;temperature;humidity
254;DHT22;590;48.772;8.846;2023-06-22T00:00:33;21.00;90.90
254;DHT22;590;48.772;8.846;2023-06-22T00:03:01;21.00;90.70
254;DHT22;590;48.772;8.846;2023-06-22T00:05:31;20.90;91.00
254;DHT22;590;48.772;8.846;2023-06-22T00:08:02;20.80;91.10
254;DHT22;590;48.772;8.846;2023-06-22T00:10:31;20.80;91.70
254;DHT22;590;48.772;8.846;2023-06-22T00:12:59;20.80;92.30
254;DHT22;590;48.772;8.846;2023-06-22T00:15:27;20.80;91.70
254;DHT22;590;48.772;8.846;2023-06-22T00:17:56;20.70;91.60
254;DHT22;590;48.772;8.846;2023-06-22T00:20:25;20.70;91.70
254;DHT22;590;48.772;8.846;2023-06-22T00:22:57;20.70;91.70
254;DHT22;590;48.772;8.846;2023-06-22T00:25:25;20.60;91.80
254;DHT22;590;48.772;8.846;2023-06-22T00:27:53;20.50;91.90
254;DHT22;590;48.772;8.846;2023-06-22T00:30:21;20.40;92.90
254;DHT22;590;48.772;8.846;2023-06-22T00:32:49;20.40;92.70
254;DHT22;590;48.772;8.846;2023-06-22T00:35:17;20.30;93.20
254;DHT22;590;48.772;8.846;2023-06-22T00:37:45;20.30;93.20
254;DHT22;590;48.772;8.846;2023-06-22T00:40:15;20.30;93.50
254;DHT22;590;48.772;8.846;2023-06-22T00:42:48;20.20;93.70
254;DHT22;590;48.772;8.846;2023-06-22T00:45:16;20.20;93.60
254;DHT22;590;48.772;8.846;2023-06-22T00:47:44;20.20;94.40
254;DHT22;590;48.772;8.846;2023-06-22T00:50:18;20.20;95.00
254;DHT22;590;48.772;8.846;2023-06-22T00:52:49;20.20;95.40
254;DHT22;590;48.772;8.846;2023-06-22T00:55:20;20.20;94.90
254;DHT22;590;48.772;8.846;2023-06-22T00:57:50;20.20;94.90
254;DHT22;590;48.772;8.846;2023-06-22T01:00:22;20.10;94.80
254;DHT22;590;48.772;8.846;2023-06-22T01:02:52;20.00;96.00
254;DHT22;590;48.772;8.846;2023-06-22T01:05:21;20.00;98.30
254;DHT22;590;48.772;8.846;2023-06-22T01:08:02;20.00;98.90
254;DHT22;590;48.772;8.846;2023-06-22T01:10:38;20.10;99.60
254;DHT22;590;48.772;8.846;2023-06-22T01:13:16;20.10;99.40
254;DHT22;590;48.772;8.846;2023-06-22T01:15:48;20.20;98.90
254;DHT22;590;48.772;8.846;2023-06-22T01:18:18;20.20;98.90
254;DHT22;590;48.772;8.846;2023-06-22T01:20:47;20.20;99.20
254;DHT22;590;48.772;8.846;2023-06-22T01:23:25;20.20;99.00
254;DHT22;590;48.772;8.846;2023-06-22T01:26:02;20.20;98.40
254;DHT22;590;48.772;8.846;2023-06-22T01:28:45;20.20;98.00
254;DHT22;590;48.772;8.846;2023-06-22T01:31:15;20.10;98.40
254;DHT22;590;48.772;8.846;2023-06-22T01:33:48;20.20;98.60
254;DHT22;590;48.772;8.846;2023-06-22T01:36:18;20.20;98.00
254;DHT22;590;48.772;8.846;2023-06-22T01:38:47;20.10;97.80
254;DHT22;590;48.772;8.846;2023-06-22T01:41:16;20.00;97.40
254;DHT22;590;48.772;8.846;2023-06-22T01:43:47;20.00;96.90
254;DHT22;590;48.772;8.846;2023-06-22T01:46:17;19.90;97.00
254;DHT22;590;48.772;8.846;2023-06-22T01:48:46;19.90;97.40
254;DHT22;590;48.772;8.846;2023-06-22T01:51:15;19.80;97.80
254;DHT22;590;48.772;8.846;2023-06-22T01:53:43;19.80;98.70
254;DHT22;590;48.772;8.846;2023-06-22T01:56:11;19.80;98.50
254;DHT22;590;48.772;8.846;2023-06-22T01:58:46;19.90;98.70
254;DHT22;590;48.772;8.846;2023-06-22T02:01:21;19.80;98.50
254;DHT22;590;48.772;8.846;2023-06-22T02:03:57;19.80;98.80
254;DHT22;590;48.772;8.846;2023-06-22T02:06:31;19.80;98.60
254;DHT22;590;48.772;8.846;2023-06-22T02:09:04;19.70;98.60
254;DHT22;590;48.772;8.846;2023-06-22T02:11:35;19.70;98.90
254;DHT22;590;48.772;8.846;2023-06-22T02:14:06;19.70;99.20
254;DHT22;590;48.772;8.846;2023-06-22T02:16:35;19.70;99.50
254;DHT22;590;48.772;8.846;2023-06-22T02:19:04;19.60;99.10
254;DHT22;590;48.772;8.846;2023-06-22T02:21:33;19.60;98.70
254;DHT22;590;48.772;8.846;2023-06-22T02:24:01;19.60;98.40
254;DHT22;590;48.772;8.846;2023-06-22T02:26:30;19.50;98.20
254;DHT22;590;48.772;8.846;2023-06-22T02:28:58;19.40;98.10
254;DHT22;590;48.772;8.846;2023-06-22T02:31:28;19.30;98.20
254;DHT22;590;48.772;8.846;2023-06-22T02:33:58;19.30;99.00
254;DHT22;590;48.772;8.846;2023-06-22T02:36:26;19.30;99.60
254;DHT22;590;48.772;8.846;2023-06-22T02:38:57;19.30;99.60
254;DHT22;590;48.772;8.846;2023-06-22T02:41:28;19.30;99.90
254;DHT22;590;48.772;8.846;2023-06-22T02:43:56;19.40;99.90
254;DHT22;590;48.772;8.846;2023-06-22T02:46:24;19.40;99.90
254;DHT22;590;48.772;8.846;2023-06-22T02:48:54;19.30;99.90
254;DHT22;590;48.772;8.846;2023-06-22T02:51:22;19.40;99.90
254;DHT22;590;48.772;8.846;2023-06-22T02:53:50;19.40;99.90
254;DHT22;590;48.772;8.846;2023-06-22T02:56:18;19.30;99.80
254;DHT22;590;48.772;8.846;2023-06-22T02:58:51;19.30;99.80
254;DHT22;590;48.772;8.846;2023-06-22T03:01:20;19.30;99.90
254;DHT22;590;48.772;8.846;2023-06-22T03:03:51;19.30;99.90
254;DHT22;590;48.772;8.846;2023-06-22T03:06:20;19.20;99.90
254;DHT22;590;48.772;8.846;2023-06-22T03:08:51;19.20;99.90
254;DHT22;590;48.772;8.846;2023-06-22T03:11:19;19.10;99.60
254;DHT22;590;48.772;8.846;2023-06-22T03:13:47;19.00;99.40
254;DHT22;590;48.772;8.846;2023-06-22T03:16:15;19.00;99.10
254;DHT22;590;48.772;8.846;2023-06-22T03:18:43;19.00;99.90
254;DHT22;590;48.772;8.846;2023-06-22T03:21:11;18.90;99.90
254;DHT22;590;48.772;8.846;2023-06-22T03:23:41;18.90;99.90
254;DHT22;590;48.772;8.846;2023-06-22T03:26:09;18.90;99.90
254;DHT22;590;48.772;8.846;2023-06-22T03:28:37;18.90;99.90
254;DHT22;590;48.772;8.846;2023-06-22T03:31:05;18.90;99.90
254;DHT22;590;48.772;8.846;2023-06-22T03:33:34;19.00;99.90
254;DHT22;590;48.772;8.846;2023-06-22T03:36:02;19.00;99.90
254;DHT22;590;48.772;8.846;2023-06-22T03:38:31;19.10;99.90
254;DHT22;590;48.772;8.846;2023-06-22T03:41:00;19.10;99.90
254;DHT22;590;48.772;8.846;2023-06-22T03:43:28;19.00;99.90
254;DHT22;590;48.772;8.846;2023-06-22T03:45:56;19.00;99.90
254;DHT22;590;48.772;8.846;2023-06-22T03:48:24;19.00;99.90
254;DHT22;590;48.772;8.846;2023-06-22T03:50:52;19.00;99.90
254;DHT22;590;48.772;8.846;2023-06-22T03:53:20;19.00;99.90
254;DHT22;590;48.772;8.846;2023-06-22T03:55:49;19.00;99.90
254;DHT22;590;48.772;8.846;2023-06-22T03:58:21;19.10;99.90
254;DHT22;590;48.772;8.846;2023-06-22T04:00:49;19.10;99.90
254;DHT22;590;48.772;8.846;2023-06-22T04:03:18;19.20;99.90
254;DHT22;590;48.772;8.846;2023-06-22T04:05:47;19.30;99.90
254;DHT22;590;48.772;8.846;2023-06-22T04:08:15;19.40;99.90
254;DHT22;590;48.772;8.846;2023-06-22T04:10:43;19.50;99.90
254;DHT22;590;48.772;8.846;2023-06-22T04:13:11;19.70;99.30
254;DHT22;590;48.772;8.846;2023-06-22T04:15:41;19.90;98.40
254;DHT22;590;48.772;8.846;2023-06-22T04:18:09;20.10;97.90
254;DHT22;590;48.772;8.846;2023-06-22T04:20:37;20.50;96.50
254;DHT22;590;48.772;8.846;2023-06-22T04:23:05;20.90;93.10
254;DHT22;590;48.772;8.846;2023-06-22T04:25:33;21.50;88.00
254;DHT22;590;48.772;8.846;2023-06-22T04:28:01;22.00;82.00
254;DHT22;590;48.772;8.846;2023-06-22T04:30:32;22.50;76.30
254;DHT22;590;48.772;8.846;2023-06-22T04:33:02;22.90;71.50
254;DHT22;590;48.772;8.846;2023-06-22T04:35:30;23.30;69.30
254;DHT22;590;48.772;8.846;2023-06-22T04:37:58;23.80;65.30
254;DHT22;590;48.772;8.846;2023-06-22T04:40:26;24.30;61.60
254;DHT22;590;48.772;8.846;2023-06-22T04:42:55;24.80;57.80
254;DHT22;590;48.772;8.846;2023-06-22T04:45:23;25.30;51.60
254;DHT22;590;48.772;8.846;2023-06-22T04:47:51;25.80;49.40
254;DHT22;590;48.772;8.846;2023-06-22T04:50:20;26.30;44.60
254;DHT22;590;48.772;8.846;2023-06-22T04:52:51;26.90;41.50
254;DHT22;590;48.772;8.846;2023-06-22T04:55:20;27.40;37.20
254;DHT22;590;48.772;8.846;2023-06-22T04:57:48;28.00;32.90
254;DHT22;590;48.772;8.846;2023-06-22T05:00:17;28.40;29.80
254;DHT22;590;48.772;8.846;2023-06-22T05:02:46;28.80;27.70
254;DHT22;590;48.772;8.846;2023-06-22T05:05:15;29.40;25.70
254;DHT22;590;48.772;8.846;2023-06-22T05:07:45;29.80;23.30
254;DHT22;590;48.772;8.846;2023-06-22T05:10:17;30.10;22.10
254;DHT22;590;48.772;8.846;2023-06-22T05:12:46;30.50;20.40
254;DHT22;590;48.772;8.846;2023-06-22T05:15:14;30.80;18.50
254;DHT22;590;48.772;8.846;2023-06-22T05:17:42;30.90;19.50
254;DHT22;590;48.772;8.846;2023-06-22T05:20:13;30.70;19.70
254;DHT22;590;48.772;8.846;2023-06-22T05:22:46;30.70;19.40
254;DHT22;590;48.772;8.846;2023-06-22T05:25:14;30.50;19.70
254;DHT22;590;48.772;8.846;2023-06-22T05:27:42;30.10;21.30
254;DHT22;590;48.772;8.846;2023-06-22T05:30:11;29.80;20.80
254;DHT22;590;48.772;8.846;2023-06-22T05:32:39;29.50;22.00
254;DHT22;590;48.772;8.846;2023-06-22T05:35:07;29.00;23.30
254;DHT22;590;48.772;8.846;2023-06-22T05:37:35;28.70;25.60
254;DHT22;590;48.772;8.846;2023-06-22T05:40:06;28.20;27.40
254;DHT22;590;48.772;8.846;2023-06-22T05:42:36;27.80;27.40
254;DHT22;590;48.772;8.846;2023-06-22T05:45:05;27.60;30.80
254;DHT22;590;48.772;8.846;2023-06-22T05:47:33;27.60;32.30
254;DHT22;590;48.772;8.846;2023-06-22T05:50:01;27.70;31.80
254;DHT22;590;48.772;8.846;2023-06-22T05:52:33;27.80;30.80
254;DHT22;590;48.772;8.846;2023-06-22T05:55:02;27.90;29.30
254;DHT22;590;48.772;8.846;2023-06-22T05:57:32;28.00;29.20
254;DHT22;590;48.772;8.846;2023-06-22T06:00:00;28.20;27.50
254;DHT22;590;48.772;8.846;2023-06-22T06:02:28;28.40;27.10
254;DHT22;590;48.772;8.846;2023-06-22T06:04:56;28.50;27.20
254;DHT22;590;48.772;8.846;2023-06-22T06:07:24;28.70;24.50
254;DHT22;590;48.772;8.846;2023-06-22T06:09:52;28.70;24.80
254;DHT22;590;48.772;8.846;2023-06-22T06:12:20;28.70;24.80
254;DHT22;590;48.772;8.846;2023-06-22T06:14:49;29.00;23.60
254;DHT22;590;48.772;8.846;2023-06-22T06:17:18;29.20;23.10
254;DHT22;590;48.772;8.846;2023-06-22T06:19:46;29.50;21.80
254;DHT22;590;48.772;8.846;2023-06-22T06:22:14;29.70;22.50
254;DHT22;590;48.772;8.846;2023-06-22T06:24:42;29.90;21.00
254;DHT22;590;48.772;8.846;2023-06-22T06:27:10;30.10;21.50
254;DHT22;590;48.772;8.846;2023-06-22T06:29:38;30.30;19.80
254;DHT22;590;48.772;8.846;2023-06-22T06:32:08;30.60;19.40
254;DHT22;590;48.772;8.846;2023-06-22T06:34:37;30.90;17.60
254;DHT22;590;48.772;8.846;2023-06-22T06:37:04;31.20;15.50
254;DHT22;590;48.772;8.846;2023-06-22T06:39:32;31.60;14.90
254;DHT22;590;48.772;8.846;2023-06-22T06:42:00;31.80;13.50
254;DHT22;590;48.772;8.846;2023-06-22T06:44:28;32.10;12.90
254;DHT22;590;48.772;8.846;2023-06-22T06:46:56;32.10;11.90
254;DHT22;590;48.772;8.846;2023-06-22T06:49:26;32.20;12.90
254;DHT22;590;48.772;8.846;2023-06-22T06:51:54;32.40;10.30
254;DHT22;590;48.772;8.846;2023-06-22T06:54:22;32.50;12.00
254;DHT22;590;48.772;8.846;2023-06-22T06:56:50;32.70;10.30
254;DHT22;590;48.772;8.846;2023-06-22T06:59:18;32.90;10.10
254;DHT22;590;48.772;8.846;2023-06-22T07:01:47;33.00;7.50
254;DHT22;590;48.772;8.846;2023-06-22T07:04:15;33.10;7.70
254;DHT22;590;48.772;8.846;2023-06-22T07:06:44;33.50;7.40
254;DHT22;590;48.772;8.846;2023-06-22T07:09:13;33.30;6.50
254;DHT22;590;48.772;8.846;2023-06-22T07:11:40;32.60;7.40
254;DHT22;590;48.772;8.846;2023-06-22T07:14:08;32.90;8.10
254;DHT22;590;48.772;8.846;2023-06-22T07:16:37;33.30;6.30
254;DHT22;590;48.772;8.846;2023-06-22T07:19:04;33.20;5.80
254;DHT22;590;48.772;8.846;2023-06-22T07:21:36;32.50;7.00
254;DHT22;590;48.772;8.846;2023-06-22T07:24:06;32.40;7.50
254;DHT22;590;48.772;8.846;2023-06-22T07:26:34;32.30;7.50
254;DHT22;590;48.772;8.846;2023-06-22T07:29:02;32.30;7.80
254;DHT22;590;48.772;8.846;2023-06-22T07:31:31;32.20;7.30
254;DHT22;590;48.772;8.846;2023-06-22T07:33:59;32.00;8.10
254;DHT22;590;48.772;8.846;2023-06-22T07:36:26;32.10;8.90
254;DHT22;590;48.772;8.846;2023-06-22T07:38:56;32.60;7.90
254;DHT22;590;48.772;8.846;2023-06-22T07:41:26;32.70;6.20
254;DHT22;590;48.772;8.846;2023-06-22T07:43:54;32.80;7.60
254;DHT22;590;48.772;8.846;2023-06-22T07:46:22;33.40;7.90
254;DHT22;590;48.772;8.846;2023-06-22T07:48:50;34.00;6.10
254;DHT22;590;48.772;8.846;2023-06-22T07:51:22;33.80;4.40
254;DHT22;590;48.772;8.846;2023-06-22T07:53:50;33.50;4.30
254;DHT22;590;48.772;8.846;2023-06-22T07:56:18;33.70;4.90
254;DHT22;590;48.772;8.846;2023-06-22T07:58:48;34.10;4.00
254;DHT22;590;48.772;8.846;2023-06-22T08:01:17;34.60;3.80
254;DHT22;590;48.772;8.846;2023-06-22T08:03:48;34.70;2.70
254;DHT22;590;48.772;8.846;2023-06-22T08:06:16;34.70;2.80
254;DHT22;590;48.772;8.846;2023-06-22T08:08:44;34.60;2.80
254;DHT22;590;48.772;8.846;2023-06-22T08:11:15;34.20;2.50
254;DHT22;590;48.772;8.846;2023-06-22T08:13:43;34.10;3.10
254;DHT22;590;48.772;8.846;2023-06-22T08:16:12;34.10;3.90
254;DHT22;590;48.772;8.846;2023-06-22T08:18:40;33.80;4.10
254;DHT22;590;48.772;8.846;2023-06-22T08:21:08;33.70;4.10
254;DHT22;590;48.772;8.846;2023-06-22T08:23:38;33.50;4.40
254;DHT22;590;48.772;8.846;2023-06-22T08:26:06;33.20;6.10
254;DHT22;590;48.772;8.846;2023-06-22T08:28:34;32.90;5.90
254;DHT22;590;48.772;8.846;2023-06-22T08:31:02;32.60;6.80
254;DHT22;590;48.772;8.846;2023-06-22T08:33:31;32.20;7.60
254;DHT22;590;48.772;8.846;2023-06-22T08:36:00;31.90;8.40
254;DHT22;590;48.772;8.846;2023-06-22T08:38:28;31.50;8.90
254;DHT22;590;48.772;8.846;2023-06-22T08:40:56;31.20;9.60
254;DHT22;590;48.772;8.846;2023-06-22T08:43:23;30.90;10.40
254;DHT22;590;48.772;8.846;2023-06-22T08:45:51;30.60;11.90
254;DHT22;590;48.772;8.846;2023-06-22T08:48:19;30.50;11.80
254;DHT22;590;48.772;8.846;2023-06-22T08:50:49;30.50;12.90
254;DHT22;590;48.772;8.846;2023-06-22T08:53:17;30.50;13.30
254;DHT22;590;48.772;8.846;2023-06-22T08:55:45;30.50;13.50
254;DHT22;590;48.772;8.846;2023-06-22T08:58:13;30.60;13.40
254;DHT22;590;48.772;8.846;2023-06-22T09:00:41;30.80;14.10
254;DHT22;590;48.772;8.846;2023-06-22T09:03:09;31.30;13.60
254;DHT22;590;48.772;8.846;2023-06-22T09:05:37;32.20;11.30
254;DHT22;590;48.772;8.846;2023-06-22T09:08:06;32.70;9.20
254;DHT22;590;48.772;8.846;2023-06-22T09:10:34;32.70;7.50
254;DHT22;590;48.772;8.846;2023-06-22T09:13:02;32.40;7.60
254;DHT22;590;48.772;8.846;2023-06-22T09:15:31;31.90;9.40
254;DHT22;590;48.772;8.846;2023-06-22T09:17:59;31.30;10.10
254;DHT22;590;48.772;8.846;2023-06-22T09:20:27;30.60;12.40
254;DHT22;590;48.772;8.846;2023-06-22T09:22:55;30.30;12.30
254;DHT22;590;48.772;8.846;2023-06-22T09:25:25;30.10;13.80
254;DHT22;590;48.772;8.846;2023-06-22T09:27:53;30.60;13.80
254;DHT22;590;48.772;8.846;2023-06-22T09:30:22;31.50;12.00
254;DHT22;590;48.772;8.846;2023-06-22T09:32:50;32.50;10.80
254;DHT22;590;48.772;8.846;2023-06-22T09:35:18;33.20;9.40
254;DHT22;590;48.772;8.846;2023-06-22T09:37:46;33.80;6.70
254;DHT22;590;48.772;8.846;2023-06-22T09:40:14;34.00;4.60
254;DHT22;590;48.772;8.846;2023-06-22T09:42:45;33.90;5.40
254;DHT22;590;48.772;8.846;2023-06-22T09:45:13;33.90;5.70
254;DHT22;590;48.772;8.846;2023-06-22T09:47:41;33.70;5.60
254;DHT22;590;48.772;8.846;2023-06-22T09:50:10;33.70;6.60
254;DHT22;590;48.772;8.846;2023-06-22T09:52:38;33.70;6.10
254;DHT22;590;48.772;8.846;2023-06-22T09:55:08;33.80;5.60
254;DHT22;590;48.772;8.846;2023-06-22T09:57:36;34.30;5.10
254;DHT22;590;48.772;8.846;2023-06-22T10:00:07;34.30;4.10
254;DHT22;590;48.772;8.846;2023-06-22T10:02:40;34.30;4.80
254;DHT22;590;48.772;8.846;2023-06-22T10:05:09;33.80;4.50
254;DHT22;590;48.772;8.846;2023-06-22T10:07:37;33.60;6.70
254;DHT22;590;48.772;8.846;2023-06-22T10:10:09;33.60;5.80
254;DHT22;590;48.772;8.846;2023-06-22T10:12:41;33.40;6.50
254;DHT22;590;48.772;8.846;2023-06-22T10:15:11;33.30;7.10
254;DHT22;590;48.772;8.846;2023-06-22T10:17:40;33.40;8.00
254;DHT22;590;48.772;8.846;2023-06-22T10:20:08;33.40;7.30
254;DHT22;590;48.772;8.846;2023-06-22T10:22:40;33.40;6.70
254;DHT22;590;48.772;8.846;2023-06-22T10:25:09;33.30;5.80
254;DHT22;590;48.772;8.846;2023-06-22T10:27:37;33.50;7.00
254;DHT22;590;48.772;8.846;2023-06-22T10:30:08;33.60;5.00
254;DHT22;590;48.772;8.846;2023-06-22T10:32:39;33.70;6.50
254;DHT22;590;48.772;8.846;2023-06-22T10:35:08;33.70;6.00
254;DHT22;590;48.772;8.846;2023-06-22T10:37:37;33.90;4.90
254;DHT22;590;48.772;8.846;2023-06-22T10:40:06;34.00;5.00
254;DHT22;590;48.772;8.846;2023-06-22T10:42:35;34.30;4.20
254;DHT22;590;48.772;8.846;2023-06-22T10:45:03;34.60;4.40
254;DHT22;590;48.772;8.846;2023-06-22T10:47:31;35.00;4.70
254;DHT22;590;48.772;8.846;2023-06-22T10:50:01;35.20;2.80
254;DHT22;590;48.772;8.846;2023-06-22T10:52:29;35.10;3.50
254;DHT22;590;48.772;8.846;2023-06-22T10:54:57;35.00;3.00
254;DHT22;590;48.772;8.846;2023-06-22T10:57:25;34.60;4.70
254;DHT22;590;48.772;8.846;2023-06-22T10:59:53;34.80;5.70
254;DHT22;590;48.772;8.846;2023-06-22T11:02:21;34.80;3.00
254;DHT22;590;48.772;8.846;2023-06-22T11:04:50;34.50;3.80
254;DHT22;590;48.772;8.846;2023-06-22T11:07:19;34.40;4.20
254;DHT22;590;48.772;8.846;2023-06-22T11:09:47;34.50;5.10
254;DHT22;590;48.772;8.846;2023-06-22T11:12:15;34.60;4.10
254;DHT22;590;48.772;8.846;2023-06-22T11:14:43;34.70;4.40
254;DHT22;590;48.772;8.846;2023-06-22T11:17:11;34.80;2.90
254;DHT22;590;48.772;8.846;2023-06-22T11:19:39;34.50;2.70
254;DHT22;590;48.772;8.846;2023-06-22T11:22:07;34.40;3.10
254;DHT22;590;48.772;8.846;2023-06-22T11:24:37;34.20;2.50
254;DHT22;590;48.772;8.846;2023-06-22T11:27:05;34.00;3.40
254;DHT22;590;48.772;8.846;2023-06-22T11:29:33;33.80;4.80
254;DHT22;590;48.772;8.846;2023-06-22T11:32:05;33.60;5.30
254;DHT22;590;48.772;8.846;2023-06-22T11:34:35;33.40;5.20
254;DHT22;590;48.772;8.846;2023-06-22T11:37:03;33.30;6.50
254;DHT22;590;48.772;8.846;2023-06-22T11:39:31;33.40;6.80
254;DHT22;590;48.772;8.846;2023-06-22T11:42:10;33.50;7.10
254;DHT22;590;48.772;8.846;2023-06-22T11:44:38;33.60;5.30
254;DHT22;590;48.772;8.846;2023-06-22T11:47:06;33.50;4.90
254;DHT22;590;48.772;8.846;2023-06-22T11:49:34;33.40;6.30
254;DHT22;590;48.772;8.846;2023-06-22T11:52:02;33.30;6.40
254;DHT22;590;48.772;8.846;2023-06-22T11:54:31;33.30;6.90
254;DHT22;590;48.772;8.846;2023-06-22T11:56:59;33.20;6.80
254;DHT22;590;48.772;8.846;2023-06-22T11:59:28;33.10;7.50
254;DHT22;590;48.772;8.846;2023-06-22T12:01:57;33.00;7.10
254;DHT22;590;48.772;8.846;2023-06-22T12:04:26;32.90;7.50
254;DHT22;590;48.772;8.846;2023-06-22T12:06:54;32.90;7.20
254;DHT22;590;48.772;8.846;2023-06-22T12:09:22;32.80;7.50
254;DHT22;590;48.772;8.846;2023-06-22T12:11:50;32.90;7.50
254;DHT22;590;48.772;8.846;2023-06-22T12:14:18;32.90;7.60
254;DHT22;590;48.772;8.846;2023-06-22T12:16:47;32.90;7.60
254;DHT22;590;48.772;8.846;2023-06-22T12:19:15;32.90;6.30
254;DHT22;590;48.772;8.846;2023-06-22T12:21:43;32.70;7.40
254;DHT22;590;48.772;8.846;2023-06-22T12:24:12;32.70;9.30
254;DHT22;590;48.772;8.846;2023-06-22T12:26:40;32.80;8.00
254;DHT22;590;48.772;8.846;2023-06-22T12:29:09;32.80;7.80
254;DHT22;590;48.772;8.846;2023-06-22T12:31:37;32.80;7.50
254;DHT22;590;48.772;8.846;2023-06-22T12:34:08;32.80;7.90
254;DHT22;590;48.772;8.846;2023-06-22T12:36:36;32.90;8.80
254;DHT22;590;48.772;8.846;2023-06-22T12:39:04;33.10;8.00
254;DHT22;590;48.772;8.846;2023-06-22T12:41:32;33.10;8.70
254;DHT22;590;48.772;8.846;2023-06-22T12:44:00;33.20;7.50
254;DHT22;590;48.772;8.846;2023-06-22T12:46:28;33.20;8.40
254;DHT22;590;48.772;8.846;2023-06-22T12:48:57;33.20;7.80
254;DHT22;590;48.772;8.846;2023-06-22T12:51:29;33.30;7.80
254;DHT22;590;48.772;8.846;2023-06-22T12:53:57;33.20;7.20
254;DHT22;590;48.772;8.846;2023-06-22T12:56:25;33.20;8.40
254;DHT22;590;48.772;8.846;2023-06-22T12:58:53;33.10;7.60
254;DHT22;590;48.772;8.846;2023-06-22T13:01:21;32.90;8.60
254;DHT22;590;48.772;8.846;2023-06-22T13:03:49;32.90;8.40
254;DHT22;590;48.772;8.846;2023-06-22T13:06:17;32.90;8.00
254;DHT22;590;48.772;8.846;2023-06-22T13:08:47;32.90;8.80
254;DHT22;590;48.772;8.846;2023-06-22T13:11:18;32.90;8.90
254;DHT22;590;48.772;8.846;2023-06-22T13:13:46;32.90;9.40
254;DHT22;590;48.772;8.846;2023-06-22T13:16:14;32.80;10.10
254;DHT22;590;48.772;8.846;2023-06-22T13:18:42;32.80;10.80
254;DHT22;590;48.772;8.846;2023-06-22T13:21:10;32.70;11.20
254;DHT22;590;48.772;8.846;2023-06-22T13:23:38;32.70;11.50
254;DHT22;590;48.772;8.846;2023-06-22T13:26:07;32.70;11.10
254;DHT22;590;48.772;8.846;2023-06-22T13:28:35;32.70;11.30
254;DHT22;590;48.772;8.846;2023-06-22T13:31:03;32.80;11.50
254;DHT22;590;48.772;8.846;2023-06-22T13:33:31;32.90;11.20
254;DHT22;590;48.772;8.846;2023-06-22T13:35:59;33.00;11.10
254;DHT22;590;48.772;8.846;2023-06-22T13:38:29;33.20;10.30
254;DHT22;590;48.772;8.846;2023-06-22T13:40:59;33.30;10.30
254;DHT22;590;48.772;8.846;2023-06-22T13:43:29;33.40;10.20
254;DHT22;590;48.772;8.846;2023-06-22T13:45:57;33.50;10.70
254;DHT22;590;48.772;8.846;2023-06-22T13:48:25;33.70;10.50
254;DHT22;590;48.772;8.846;2023-06-22T13:50:55;33.70;10.80
254;DHT22;590;48.772;8.846;2023-06-22T13:53:24;33.70;10.10
254;DHT22;590;48.772;8.846;2023-06-22T13:55:52;33.70;10.50
254;DHT22;590;48.772;8.846;2023-06-22T13:58:20;33.70;10.20
254;DHT22;590;48.772;8.846;2023-06-22T14:00:50;33.70;9.80
254;DHT22;590;48.772;8.846;2023-06-22T14:03:20;33.70;10.10
254;DHT22;590;48.772;8.846;2023-06-22T14:05:48;33.70;9.90
254;DHT22;590;48.772;8.846;2023-06-22T14:08:16;33.70;9.00
254;DHT22;590;48.772;8.846;2023-06-22T14:11:06;33.70;3.60
254;DHT22;590;48.772;8.846;2023-06-22T14:13:34;33.60;1.20
254;DHT22;590;48.772;8.846;2023-06-22T14:16:04;33.60;1.00
254;DHT22;590;48.772;8.846;2023-06-22T14:18:32;33.60;1.00
254;DHT22;590;48.772;8.846;2023-06-22T14:21:00;33.50;1.00
254;DHT22;590;48.772;8.846;2023-06-22T14:23:28;33.40;1.00
254;DHT22;590;48.772;8.846;2023-06-22T14:25:56;33.50;1.00
254;DHT22;590;48.772;8.846;2023-06-22T14:28:24;33.50;1.00
254;DHT22;590;48.772;8.846;2023-06-22T14:30:52;33.40;1.00
254;DHT22;590;48.772;8.846;2023-06-22T14:33:22;33.40;1.00
254;DHT22;590;48.772;8.846;2023-06-22T14:35:50;33.40;1.00
254;DHT22;590;48.772;8.846;2023-06-22T14:38:18;33.40;1.00
254;DHT22;590;48.772;8.846;2023-06-22T14:40:46;33.40;1.00
254;DHT22;590;48.772;8.846;2023-06-22T14:43:19;33.30;1.00
254;DHT22;590;48.772;8.846;2023-06-22T14:45:47;33.30;1.00
254;DHT22;590;48.772;8.846;2023-06-22T14:48:17;33.30;1.00
254;DHT22;590;48.772;8.846;2023-06-22T14:50:47;33.30;1.00
254;DHT22;590;48.772;8.846;2023-06-22T14:53:15;33.40;1.00
254;DHT22;590;48.772;8.846;2023-06-22T14:55:43;33.30;1.00
254;DHT22;590;48.772;8.846;2023-06-22T14:58:11;33.30;1.00
254;DHT22;590;48.772;8.846;2023-06-22T15:00:39;33.10;1.00
254;DHT22;590;48.772;8.846;2023-06-22T15:03:07;33.00;1.00
254;DHT22;590;48.772;8.846;2023-06-22T15:05:38;32.90;1.00
254;DHT22;590;48.772;8.846;2023-06-22T15:08:07;32.70;1.00
254;DHT22;590;48.772;8.846;2023-06-22T15:10:37;32.60;1.00
254;DHT22;590;48.772;8.846;2023-06-22T15:13:06;32.50;1.00
254;DHT22;590;48.772;8.846;2023-06-22T15:15:34;32.50;1.00
254;DHT22;590;48.772;8.846;2023-06-22T15:18:02;32.50;1.00
254;DHT22;590;48.772;8.846;2023-06-22T15:20:30;32.50;1.00
254;DHT22;590;48.772;8.846;2023-06-22T15:22:59;32.50;1.00
254;DHT22;590;48.772;8.846;2023-06-22T15:25:28;32.40;1.00
254;DHT22;590;48.772;8.846;2023-06-22T15:27:56;32.30;1.00
254;DHT22;590;48.772;8.846;2023-06-22T15:30:24;32.30;1.00
254;DHT22;590;48.772;8.846;2023-06-22T15:32:52;32.20;1.00
254;DHT22;590;48.772;8.846;2023-06-22T15:35:21;32.10;1.00
254;DHT22;590;48.772;8.846;2023-06-22T15:37:49;32.00;1.00
254;DHT22;590;48.772;8.846;2023-06-22T15:40:18;32.00;1.00
254;DHT22;590;48.772;8.846;2023-06-22T15:42:49;32.00;1.00
254;DHT22;590;48.772;8.846;2023-06-22T15:45:20;32.00;1.00
254;DHT22;590;48.772;8.846;2023-06-22T15:47:48;32.00;1.00
254;DHT22;590;48.772;8.846;2023-06-22T15:50:16;32.10;1.00
254;DHT22;590;48.772;8.846;2023-06-22T15:52:44;32.20;1.00
254;DHT22;590;48.772;8.846;2023-06-22T15:55:14;32.20;1.10
254;DHT22;590;48.772;8.846;2023-06-22T15:57:42;32.30;1.10
254;DHT22;590;48.772;8.846;2023-06-22T16:00:16;32.30;1.20
254;DHT22;590;48.772;8.846;2023-06-22T16:02:45;32.30;1.20
254;DHT22;590;48.772;8.846;2023-06-22T16:05:14;32.30;1.00
254;DHT22;590;48.772;8.846;2023-06-22T16:07:42;32.30;1.00
254;DHT22;590;48.772;8.846;2023-06-22T16:10:11;32.30;1.00
254;DHT22;590;48.772;8.846;2023-06-22T16:12:42;32.30;1.00
254;DHT22;590;48.772;8.846;2023-06-22T16:15:11;32.20;1.00
254;DHT22;590;48.772;8.846;2023-06-22T16:17:40;32.20;1.00
254;DHT22;590;48.772;8.846;2023-06-22T16:20:09;32.10;1.00
254;DHT22;590;48.772;8.846;2023-06-22T16:22:37;32.00;1.00
254;DHT22;590;48.772;8.846;2023-06-22T16:25:06;31.90;1.00
254;DHT22;590;48.772;8.846;2023-06-22T16:27:34;31.90;1.00
254;DHT22;590;48.772;8.846;2023-06-22T16:30:03;31.90;1.00
254;DHT22;590;48.772;8.846;2023-06-22T16:32:31;31.90;1.00
254;DHT22;590;48.772;8.846;2023-06-22T16:35:01;31.80;1.00
254;DHT22;590;48.772;8.846;2023-06-22T16:37:29;31.80;1.00
254;DHT22;590;48.772;8.846;2023-06-22T16:39:57;31.80;1.00
254;DHT22;590;48.772;8.846;2023-06-22T16:42:25;31.80;1.00
254;DHT22;590;48.772;8.846;2023-06-22T16:44:53;31.70;1.00
254;DHT22;590;48.772;8.846;2023-06-22T16:47:21;31.70;1.00
254;DHT22;590;48.772;8.846;2023-06-22T16:49:49;31.60;1.00
254;DHT22;590;48.772;8.846;2023-06-22T16:52:18;31.50;1.00
254;DHT22;590;48.772;8.846;2023-06-22T16:54:46;31.40;1.50